Time;durP1;ratioP1;P1;durP2;ratioP2;P2;SDS_P1;SDS_P2;PMS_P1;PMS_P2;Temp;Humidity;BMP_temperature;BMP_pressure;BME280_temperature;BME280_humidity;BME280_pressure;Samples;Min_cycle;Max_cycle;Signal;HPM_P1;HPM_P2
2021/10/03 00:02:00;;;;;;;3.20;2.90;;;19.10;99.90;;;;;;5008390;28;20046;-70
2021/10/03 00:04:27;;;;;;;3.55;2.83;;;19.00;99.90;;;;;;5009317;28;20061;-70
2021/10/03 00:06:54;;;;;;;3.67;2.90;;;19.00;99.90;;;;;;5010123;28;20018;-72
2021/10/03 00:09:21;;;;;;;4.07;2.47;;;19.00;99.90;;;;;;5009517;28;20029;-71
2021/10/03 00:11:48;;;;;;;4.75;2.85;;;19.00;99.90;;;;;;5009412;28;20033;-71
2021/10/03 00:14:16;;;;;;;3.10;2.67;;;19.00;99.90;;;;;;5008727;28;20033;-71
2021/10/03 00:16:43;;;;;;;4.40;2.53;;;18.90;99.90;;;;;;5009303;28;20037;-72
2021/10/03 00:19:08;;;;;;;3.80;2.63;;;18.90;99.90;;;;;;5010127;28;20045;-71
2021/10/03 00:21:34;;;;;;;3.80;2.65;;;18.90;99.90;;;;;;5009074;28;20459;-72
2021/10/03 00:24:00;;;;;;;3.75;2.25;;;18.90;99.90;;;;;;5008652;28;20034;-71
2021/10/03 00:26:26;;;;;;;6.18;3.05;;;18.90;99.90;;;;;;5009029;28;20117;-71
2021/10/03 00:28:52;;;;;;;4.80;2.35;;;18.90;99.90;;;;;;5009995;28;20129;-71
2021/10/03 00:31:18;;;;;;;4.25;2.78;;;18.90;99.90;;;;;;5007866;28;20041;-70
2021/10/03 00:33:43;;;;;;;3.38;2.60;;;18.90;99.90;;;;;;5007540;28;20477;-71
2021/10/03 00:36:09;;;;;;;4.72;3.10;;;18.80;99.90;;;;;;5000694;28;20347;-71
2021/10/03 00:38:35;;;;;;;3.72;2.95;;;18.90;99.90;;;;;;5010247;28;20111;-70
2021/10/03 00:41:01;;;;;;;6.35;3.50;;;18.90;99.90;;;;;;5008361;28;20450;-70
2021/10/03 00:43:27;;;;;;;6.28;3.13;;;18.90;99.90;;;;;;5008211;28;20022;-70
2021/10/03 00:45:53;;;;;;;6.78;3.60;;;18.90;99.90;;;;;;5004879;28;20113;-71
2021/10/03 00:48:19;;;;;;;4.45;3.25;;;18.90;99.90;;;;;;4990264;28;20113;-70
2021/10/03 00:50:46;;;;;;;7.30;2.67;;;18.90;99.90;;;;;;4998537;28;20029;-71
2021/10/03 00:53:13;;;;;;;3.60;2.80;;;18.90;99.90;;;;;;5010380;28;20215;-71
2021/10/03 00:55:40;;;;;;;4.63;2.78;;;18.90;99.90;;;;;;5010173;28;20152;-72
2021/10/03 00:58:06;;;;;;;2.97;2.38;;;18.90;99.90;;;;;;5009155;28;20037;-71
2021/10/03 01:00:33;;;;;;;4.30;2.92;;;18.90;99.90;;;;;;5009538;28;20389;-71
2021/10/03 01:03:01;;;;;;;6.10;3.90;;;18.90;99.90;;;;;;5010539;28;20050;-71
2021/10/03 01:05:27;;;;;;;5.53;2.92;;;18.90;99.90;;;;;;5010383;28;20108;-70
2021/10/03 01:07:53;;;;;;;4.03;3.20;;;19.00;99.90;;;;;;5009139;28;20410;-71
2021/10/03 01:10:24;;;;;;;9.73;2.88;;;18.90;99.90;;;;;;5009038;28;20356;-70
2021/10/03 01:12:58;;;;;;;7.22;3.22;;;19.00;99.90;;;;;;5012957;28;20375;-71
2021/10/03 01:15:25;;;;;;;5.88;3.65;;;18.90;99.90;;;;;;5013805;28;20076;-71
2021/10/03 01:17:51;;;;;;;2.67;2.47;;;19.00;99.90;;;;;;5013293;28;20037;-71
2021/10/03 01:20:18;;;;;;;5.25;2.88;;;19.00;99.90;;;;;;5013903;28;20022;-72
2021/10/03 01:22:43;;;;;;;3.08;2.70;;;18.90;99.90;;;;;;5014530;28;20026;-71
2021/10/03 01:25:10;;;;;;;4.28;2.67;;;18.90;99.90;;;;;;5012768;28;20028;-70
2021/10/03 01:27:37;;;;;;;2.83;2.47;;;19.00;99.90;;;;;;5013288;28;20022;-72
2021/10/03 01:30:10;;;;;;;3.85;2.67;;;18.90;99.90;;;;;;5012474;28;20046;-71
2021/10/03 01:32:35;;;;;;;4.35;2.83;;;18.90;99.90;;;;;;5013429;28;20453;-71
2021/10/03 01:35:01;;;;;;;3.13;2.35;;;19.00;99.90;;;;;;5012175;28;20109;-71
2021/10/03 01:37:27;;;;;;;3.60;2.58;;;18.90;99.90;;;;;;5012592;28;20032;-71
2021/10/03 01:39:53;;;;;;;2.20;1.95;;;18.90;99.90;;;;;;5012948;28;20120;-72
2021/10/03 01:42:18;;;;;;;3.33;2.67;;;18.90;99.90;;;;;;5012156;28;20423;-71
2021/10/03 01:44:44;;;;;;;3.65;2.42;;;19.00;99.90;;;;;;5014166;28;20463;-73
2021/10/03 01:47:10;;;;;;;6.60;2.05;;;19.00;99.90;;;;;;5014117;28;20443;-71
2021/10/03 01:49:36;;;;;;;2.63;2.38;;;18.90;99.90;;;;;;5012911;28;20058;-71
2021/10/03 01:52:01;;;;;;;2.67;2.08;;;19.00;99.90;;;;;;5012003;28;20022;-70
2021/10/03 01:54:27;;;;;;;3.58;2.60;;;19.00;99.90;;;;;;5012653;28;20036;-70
2021/10/03 01:56:53;;;;;;;3.03;2.53;;;19.00;99.90;;;;;;5012878;28;20018;-70
2021/10/03 01:59:18;;;;;;;3.95;3.03;;;19.00;99.90;;;;;;5012170;28;20375;-70
2021/10/03 02:01:46;;;;;;;5.95;2.40;;;18.90;99.90;;;;;;5012196;28;20048;-72
2021/10/03 02:04:25;;;;;;;3.38;2.88;;;18.90;99.90;;;;;;5010239;28;20022;-72
2021/10/03 02:06:52;;;;;;;4.55;2.38;;;19.00;99.90;;;;;;5012671;28;20048;-70
2021/10/03 02:09:20;;;;;;;3.63;2.67;;;19.00;99.90;;;;;;5014365;28;20030;-70
2021/10/03 02:11:48;;;;;;;9.10;2.58;;;19.00;99.90;;;;;;5012383;28;20088;-70
2021/10/03 02:14:15;;;;;;;2.85;2.35;;;18.90;99.90;;;;;;5012620;28;20021;-71
2021/10/03 02:16:42;;;;;;;2.95;2.45;;;18.90;99.90;;;;;;5013402;28;20028;-70
2021/10/03 02:19:07;;;;;;;3.15;2.47;;;18.90;99.90;;;;;;5012735;28;20075;-70
2021/10/03 02:21:34;;;;;;;5.05;2.60;;;18.90;99.90;;;;;;5013575;28;20451;-70
2021/10/03 02:24:00;;;;;;;4.75;3.33;;;18.90;99.90;;;;;;5012110;28;20080;-71
2021/10/03 02:26:26;;;;;;;6.80;2.63;;;18.90;99.90;;;;;;5013751;28;20080;-70
2021/10/03 02:28:51;;;;;;;3.42;2.53;;;18.80;99.90;;;;;;5012186;28;20033;-70
2021/10/03 02:31:18;;;;;;;3.85;3.00;;;18.80;99.90;;;;;;5011553;28;20132;-72
2021/10/03 02:33:47;;;;;;;4.75;2.55;;;18.80;99.90;;;;;;5012085;28;20021;-70
2021/10/03 02:36:14;;;;;;;8.57;3.47;;;18.70;99.90;;;;;;5012356;28;20029;-70
2021/10/03 02:38:40;;;;;;;5.22;2.72;;;18.70;99.90;;;;;;5013446;28;20034;-70
2021/10/03 02:41:08;;;;;;;6.03;2.90;;;18.70;99.90;;;;;;5012594;28;20498;-71
2021/10/03 02:43:36;;;;;;;4.18;2.80;;;18.70;99.90;;;;;;5008233;28;20091;-71
2021/10/03 02:46:03;;;;;;;3.55;2.85;;;18.70;99.90;;;;;;5004320;28;20028;-69
2021/10/03 02:48:33;;;;;;;3.85;2.42;;;18.60;99.90;;;;;;5008933;28;20421;-70
2021/10/03 02:51:00;;;;;;;4.45;2.72;;;18.70;99.90;;;;;;5001481;28;20038;-72
2021/10/03 02:53:25;;;;;;;4.72;2.63;;;18.70;99.90;;;;;;5002985;28;20065;-70
2021/10/03 02:55:52;;;;;;;3.05;2.50;;;18.60;99.90;;;;;;5000005;28;20026;-79
2021/10/03 02:58:18;;;;;;;4.32;3.13;;;18.60;99.90;;;;;;4999797;28;20033;-72
2021/10/03 03:00:46;;;;;;;2.92;2.15;;;18.60;99.90;;;;;;5001521;28;20112;-78
2021/10/03 03:03:12;;;;;;;4.82;3.10;;;18.50;99.90;;;;;;4999083;28;20034;-79
2021/10/03 03:05:38;;;;;;;5.95;2.47;;;18.50;99.90;;;;;;5003814;28;20028;-72
2021/10/03 03:08:04;;;;;;;4.43;3.00;;;18.50;99.90;;;;;;5011119;28;20030;-70
2021/10/03 03:10:30;;;;;;;3.47;2.75;;;18.40;99.90;;;;;;5012444;28;20382;-71
2021/10/03 03:12:56;;;;;;;5.40;3.00;;;18.40;99.90;;;;;;5011347;28;20120;-71
2021/10/03 03:15:22;;;;;;;3.55;2.60;;;18.40;99.90;;;;;;5007465;28;20144;-72
2021/10/03 03:17:48;;;;;;;3.45;2.30;;;18.40;99.90;;;;;;5001868;28;20057;-72
2021/10/03 03:20:14;;;;;;;3.75;2.22;;;18.40;99.90;;;;;;5007303;28;20394;-71
2021/10/03 03:22:40;;;;;;;4.63;2.50;;;18.40;99.90;;;;;;5009396;28;20080;-71
2021/10/03 03:25:08;;;;;;;5.57;3.15;;;18.40;99.90;;;;;;5011663;28;20451;-71
2021/10/03 03:27:35;;;;;;;6.18;2.33;;;18.40;99.90;;;;;;5010689;28;20049;-72
2021/10/03 03:30:01;;;;;;;4.95;2.70;;;18.40;99.90;;;;;;5009965;28;20045;-72
2021/10/03 03:32:27;;;;;;;3.42;2.75;;;18.50;99.90;;;;;;5010564;28;20022;-71
2021/10/03 03:34:52;;;;;;;4.60;2.30;;;18.40;99.90;;;;;;5010847;28;20101;-72
2021/10/03 03:37:18;;;;;;;3.28;2.30;;;18.40;99.90;;;;;;5010086;28;20068;-72
2021/10/03 03:39:44;;;;;;;3.13;2.47;;;18.30;99.90;;;;;;5010826;28;20367;-71
2021/10/03 03:42:09;;;;;;;4.25;2.55;;;18.40;99.90;;;;;;5010270;28;20022;-71
2021/10/03 03:44:35;;;;;;;2.63;2.33;;;18.30;99.90;;;;;;5010871;28;20025;-72
2021/10/03 03:47:01;;;;;;;4.85;3.22;;;18.30;99.90;;;;;;5011693;28;20030;-71
2021/10/03 03:49:27;;;;;;;6.28;3.13;;;18.20;99.90;;;;;;5010981;28;20459;-71
2021/10/03 03:51:54;;;;;;;3.67;2.70;;;18.10;99.90;;;;;;5011671;28;20047;-72
2021/10/03 03:54:19;;;;;;;2.78;2.47;;;18.20;99.90;;;;;;5009838;28;20033;-71
2021/10/03 03:56:45;;;;;;;5.07;2.75;;;18.10;99.90;;;;;;5010565;28;20022;-72
2021/10/03 03:59:11;;;;;;;4.63;2.67;;;18.20;99.90;;;;;;5011536;28;20066;-71
2021/10/03 04:01:36;;;;;;;4.47;2.50;;;18.10;99.90;;;;;;5010342;28;20042;-72
2021/10/03 04:04:02;;;;;;;4.00;2.28;;;18.20;99.90;;;;;;5009973;28;20030;-73
2021/10/03 04:06:28;;;;;;;3.28;2.40;;;18.20;99.90;;;;;;5010332;28;20022;-71
2021/10/03 04:08:54;;;;;;;5.78;3.33;;;18.20;99.90;;;;;;5010410;28;20100;-71
2021/10/03 04:11:19;;;;;;;3.33;2.45;;;18.20;99.90;;;;;;5009544;28;20030;-71
2021/10/03 04:13:45;;;;;;;2.85;2.55;;;18.20;99.90;;;;;;5010285;28;20018;-71
2021/10/03 04:16:11;;;;;;;4.28;2.92;;;18.20;99.90;;;;;;5009758;28;20029;-72
2021/10/03 04:18:37;;;;;;;3.88;2.53;;;18.20;99.90;;;;;;5010627;28;20160;-72
2021/10/03 04:21:03;;;;;;;3.83;2.10;;;18.20;99.90;;;;;;5009869;28;20075;-71
2021/10/03 04:23:30;;;;;;;2.85;2.22;;;18.20;99.90;;;;;;5010413;28;20026;-72
2021/10/03 04:25:55;;;;;;;8.55;2.85;;;18.20;99.90;;;;;;5011465;28;20026;-73
2021/10/03 04:28:24;;;;;;;6.53;2.97;;;18.20;99.90;;;;;;5011129;28;20042;-72
2021/10/03 04:30:50;;;;;;;4.93;2.30;;;18.20;99.90;;;;;;5011315;28;20037;-72
2021/10/03 04:33:15;;;;;;;5.90;3.42;;;18.20;99.90;;;;;;5009408;28;20343;-72
2021/10/03 04:35:41;;;;;;;8.77;3.35;;;18.20;99.90;;;;;;5011287;28;20119;-72
2021/10/03 04:38:06;;;;;;;8.30;2.53;;;18.20;99.90;;;;;;5009317;28;20021;-71
2021/10/03 04:40:32;;;;;;;3.13;2.60;;;18.10;99.90;;;;;;5010956;28;20037;-72
2021/10/03 04:42:58;;;;;;;4.35;2.17;;;18.20;99.90;;;;;;5009584;28;20026;-72
2021/10/03 04:45:24;;;;;;;3.40;2.80;;;18.10;99.90;;;;;;5010429;28;20486;-72
2021/10/03 04:47:49;;;;;;;4.43;2.67;;;18.10;99.90;;;;;;5017079;28;20025;-71
2021/10/03 04:50:15;;;;;;;3.15;2.40;;;18.20;99.90;;;;;;5016967;28;20460;-73
2021/10/03 04:52:41;;;;;;;5.35;3.20;;;18.10;99.90;;;;;;5017887;28;20040;-73
2021/10/03 04:55:08;;;;;;;4.47;3.08;;;18.10;99.90;;;;;;5016050;28;20071;-73
2021/10/03 04:57:34;;;;;;;4.75;3.50;;;18.10;99.90;;;;;;5017958;28;20022;-73
2021/10/03 04:59:59;;;;;;;3.28;2.88;;;18.00;99.90;;;;;;5016516;28;20092;-73
2021/10/03 05:02:25;;;;;;;4.25;2.80;;;18.10;99.90;;;;;;5017176;28;20096;-72
2021/10/03 05:04:51;;;;;;;4.85;2.95;;;18.00;99.90;;;;;;5016234;28;20121;-72
2021/10/03 05:07:16;;;;;;;6.70;3.13;;;18.00;99.90;;;;;;5017332;28;20026;-72
2021/10/03 05:09:42;;;;;;;5.18;2.72;;;18.00;99.90;;;;;;5016413;28;20018;-73
2021/10/03 05:12:08;;;;;;;5.82;3.60;;;18.00;99.90;;;;;;5017242;28;20309;-72
2021/10/03 05:14:33;;;;;;;11.57;2.95;;;18.00;99.90;;;;;;5017765;28;20432;-72
2021/10/03 05:16:59;;;;;;;5.03;3.28;;;18.10;99.90;;;;;;5018020;28;20026;-73
2021/10/03 05:19:25;;;;;;;4.50;3.30;;;18.10;99.90;;;;;;5015768;28;20255;-73
2021/10/03 05:21:50;;;;;;;5.25;3.63;;;18.10;99.90;;;;;;5016360;28;20519;-73
2021/10/03 05:24:16;;;;;;;8.13;3.97;;;18.10;99.90;;;;;;5015777;28;20183;-72
2021/10/03 05:26:42;;;;;;;5.30;3.42;;;18.00;99.90;;;;;;5017681;28;20051;-73
2021/10/03 05:29:08;;;;;;;6.82;3.60;;;18.10;99.90;;;;;;5015560;28;20033;-73
2021/10/03 05:31:34;;;;;;;9.10;3.33;;;18.00;99.90;;;;;;5017782;28;20084;-73
2021/10/03 05:34:00;;;;;;;6.32;3.35;;;18.00;99.90;;;;;;5017286;28;20084;-73
2021/10/03 05:36:25;;;;;;;4.93;3.25;;;18.00;99.90;;;;;;5015746;28;20021;-74
2021/10/03 05:38:56;;;;;;;9.43;3.22;;;18.00;99.90;;;;;;5016574;28;20455;-73
2021/10/03 05:41:22;;;;;;;4.50;3.00;;;18.00;99.90;;;;;;5015289;28;20033;-73
2021/10/03 05:43:48;;;;;;;5.97;3.78;;;18.00;99.90;;;;;;5017484;28;20026;-72
2021/10/03 05:46:13;;;;;;;6.45;2.90;;;18.00;99.90;;;;;;5015527;28;20032;-75
2021/10/03 05:48:39;;;;;;;3.35;2.53;;;18.00;99.90;;;;;;5017882;28;20021;-73
2021/10/03 05:51:05;;;;;;;7.00;3.45;;;18.00;99.90;;;;;;5016157;28;20026;-75
2021/10/03 05:53:31;;;;;;;5.32;3.30;;;18.00;99.90;;;;;;5015520;28;20475;-73
2021/10/03 05:55:56;;;;;;;3.13;2.63;;;18.00;99.90;;;;;;5015956;28;20117;-73
2021/10/03 05:58:22;;;;;;;8.18;3.58;;;18.00;99.90;;;;;;5013748;28;20407;-73
2021/10/03 06:00:48;;;;;;;4.47;3.03;;;18.00;99.90;;;;;;5013093;28;20037;-73
2021/10/03 06:03:14;;;;;;;7.32;3.03;;;18.00;99.90;;;;;;4995541;28;20045;-72
2021/10/03 06:05:40;;;;;;;5.97;3.05;;;18.00;99.90;;;;;;5014346;28;20083;-73
2021/10/03 06:08:06;;;;;;;6.32;3.17;;;18.00;99.90;;;;;;5012875;28;20045;-73
2021/10/03 06:10:32;;;;;;;4.13;3.28;;;18.00;99.90;;;;;;5011885;28;20033;-74
2021/10/03 06:12:57;;;;;;;5.65;3.38;;;18.00;99.90;;;;;;5013961;28;20028;-74
2021/10/03 06:15:23;;;;;;;7.95;3.33;;;18.10;99.90;;;;;;5013165;28;20053;-73
2021/10/03 06:17:49;;;;;;;5.10;3.38;;;18.00;99.90;;;;;;5013761;28;20028;-74
2021/10/03 06:20:14;;;;;;;6.65;3.60;;;18.00;99.90;;;;;;5011872;28;20470;-73
2021/10/03 06:22:44;;;;;;;4.05;2.97;;;18.00;99.90;;;;;;5014003;28;20413;-75
2021/10/03 06:25:10;;;;;;;11.07;3.20;;;18.00;99.90;;;;;;5011891;28;20451;-72
2021/10/03 06:27:35;;;;;;;5.13;3.20;;;18.00;99.90;;;;;;5013492;28;20030;-73
2021/10/03 06:30:02;;;;;;;3.80;3.05;;;18.00;99.90;;;;;;5013969;28;20354;-74
2021/10/03 06:32:28;;;;;;;4.47;3.28;;;18.00;99.90;;;;;;5013327;28;20037;-73
2021/10/03 06:34:54;;;;;;;4.13;3.17;;;18.00;99.90;;;;;;5012341;28;20079;-74
2021/10/03 06:37:19;;;;;;;6.80;3.35;;;18.00;99.90;;;;;;5011479;28;20041;-73
2021/10/03 06:39:45;;;;;;;7.68;4.00;;;17.90;99.90;;;;;;5013199;28;20100;-73
2021/10/03 06:42:11;;;;;;;8.30;3.22;;;17.90;99.90;;;;;;5011057;28;20026;-71
2021/10/03 06:44:37;;;;;;;7.15;3.88;;;17.90;99.90;;;;;;5013442;28;20022;-72
2021/10/03 06:47:06;;;;;;;4.50;3.80;;;17.90;99.90;;;;;;5012240;28;20029;-73
2021/10/03 06:49:31;;;;;;;5.78;3.60;;;17.90;99.90;;;;;;5012794;28;20026;-72
2021/10/03 06:51:57;;;;;;;10.50;4.72;;;18.00;99.90;;;;;;5011825;28;20098;-72
2021/10/03 06:54:23;;;;;;;4.82;3.53;;;18.00;99.90;;;;;;5011184;28;20026;-73
2021/10/03 06:56:48;;;;;;;5.20;3.17;;;18.00;99.90;;;;;;5011664;28;20025;-73
2021/10/03 06:59:16;;;;;;;8.50;4.15;;;18.00;99.90;;;;;;5010905;28;20025;-73
2021/10/03 07:01:42;;;;;;;5.57;3.75;;;18.00;99.90;;;;;;5011132;28;20099;-74
2021/10/03 07:04:08;;;;;;;8.75;4.50;;;18.00;99.90;;;;;;5013207;28;20415;-74
2021/10/03 07:06:33;;;;;;;10.07;5.13;;;18.00;99.90;;;;;;5010768;28;20021;-74
2021/10/03 07:08:59;;;;;;;6.50;3.60;;;18.00;99.90;;;;;;5012595;28;20053;-74
2021/10/03 07:11:25;;;;;;;5.72;4.32;;;17.90;99.90;;;;;;5010705;28;20416;-73
2021/10/03 07:13:50;;;;;;;8.40;4.72;;;17.90;99.90;;;;;;5011429;28;20026;-73
2021/10/03 07:16:17;;;;;;;6.38;4.43;;;18.00;99.90;;;;;;5012073;28;20022;-72
2021/10/03 07:18:43;;;;;;;4.65;3.63;;;18.00;99.90;;;;;;5011391;28;20064;-73
2021/10/03 07:21:09;;;;;;;10.23;4.05;;;18.00;99.90;;;;;;5011335;28;20025;-73
2021/10/03 07:23:35;;;;;;;8.00;4.28;;;18.00;99.90;;;;;;5011718;28;20420;-73
2021/10/03 07:26:01;;;;;;;15.65;4.95;;;18.00;99.90;;;;;;5012866;28;20179;-73
2021/10/03 07:28:26;;;;;;;12.02;5.35;;;18.00;99.90;;;;;;5010262;28;20087;-73
2021/10/03 07:30:52;;;;;;;9.40;4.75;;;18.00;99.90;;;;;;5012344;28;20462;-72
2021/10/03 07:33:19;;;;;;;6.90;4.57;;;17.90;99.90;;;;;;5010271;28;20037;-74
2021/10/03 07:35:45;;;;;;;5.47;3.90;;;18.00;99.90;;;;;;5010916;28;20025;-75
2021/10/03 07:38:11;;;;;;;6.07;4.70;;;18.00;99.90;;;;;;5012217;28;20037;-75
2021/10/03 07:40:37;;;;;;;6.53;4.32;;;18.00;99.90;;;;;;5010238;28;20026;-74
2021/10/03 07:43:03;;;;;;;7.88;5.57;;;18.00;99.90;;;;;;5012005;28;20057;-73
2021/10/03 07:45:29;;;;;;;9.02;5.93;;;18.10;99.90;;;;;;5011572;28;20080;-73
2021/10/03 07:47:55;;;;;;;7.53;4.35;;;18.10;99.90;;;;;;5012006;28;20018;-74
2021/10/03 07:50:20;;;;;;;5.68;3.85;;;18.10;99.90;;;;;;5011363;28;20435;-74
2021/10/03 07:52:46;;;;;;;7.25;4.75;;;18.10;99.90;;;;;;5010469;28;20021;-74
2021/10/03 07:55:12;;;;;;;7.28;3.83;;;18.20;99.90;;;;;;5010117;28;20355;-74
2021/10/03 07:57:38;;;;;;;8.23;4.20;;;18.20;99.90;;;;;;5009977;28;20084;-73
2021/10/03 08:00:05;;;;;;;25.45;5.22;;;18.20;99.90;;;;;;5010127;28;20053;-73
2021/10/03 08:02:31;;;;;;;8.27;4.03;;;18.20;99.90;;;;;;5009467;28;20046;-74
2021/10/03 08:04:56;;;;;;;15.38;4.65;;;18.20;99.90;;;;;;5011695;28;20490;-73
2021/10/03 08:07:22;;;;;;;6.43;4.13;;;18.30;99.90;;;;;;5009631;28;20018;-73
2021/10/03 08:09:48;;;;;;;6.97;4.25;;;18.30;99.90;;;;;;5009979;28;20026;-75
2021/10/03 08:12:13;;;;;;;4.78;3.85;;;18.30;99.90;;;;;;5011274;28;20057;-74
2021/10/03 08:14:39;;;;;;;5.35;4.00;;;18.30;99.90;;;;;;5009752;28;20026;-74
2021/10/03 08:17:05;;;;;;;4.82;2.80;;;18.40;99.90;;;;;;5011784;28;20022;-74
2021/10/03 08:19:31;;;;;;;5.20;3.72;;;18.40;99.90;;;;;;5009817;28;20123;-74
2021/10/03 08:21:56;;;;;;;5.13;4.20;;;18.30;99.90;;;;;;5011302;28;20021;-74
2021/10/03 08:24:22;;;;;;;7.97;3.58;;;18.30;99.90;;;;;;5010591;28;20093;-73
2021/10/03 08:26:48;;;;;;;10.35;3.97;;;18.40;99.90;;;;;;5010014;28;20021;-73
2021/10/03 08:29:14;;;;;;;33.72;5.53;;;18.40;99.90;;;;;;5010699;28;20030;-72
2021/10/03 08:31:39;;;;;;;11.57;4.22;;;18.40;99.90;;;;;;5009440;28;20076;-73
2021/10/03 08:34:05;;;;;;;16.27;3.70;;;18.50;99.90;;;;;;5010150;28;20033;-73
2021/10/03 08:36:31;;;;;;;14.80;4.55;;;18.50;99.90;;;;;;5009387;28;20366;-73
2021/10/03 08:38:57;;;;;;;9.80;4.47;;;18.50;99.90;;;;;;5009685;28;20068;-73
2021/10/03 08:41:23;;;;;;;8.30;3.53;;;18.60;99.90;;;;;;5008868;28;20092;-72
2021/10/03 08:43:52;;;;;;;8.77;4.28;;;18.60;99.90;;;;;;5009916;28;20068;-73
2021/10/03 08:46:25;;;;;;;6.53;3.65;;;18.50;99.90;;;;;;5009600;28;20025;-72
2021/10/03 08:48:53;;;;;;;6.07;3.63;;;18.60;99.90;;;;;;5010159;28;20459;-74
2021/10/03 08:51:19;;;;;;;8.30;4.72;;;18.60;99.90;;;;;;5009665;28;20084;-72
2021/10/03 08:53:45;;;;;;;8.10;4.03;;;18.60;99.90;;;;;;5009857;28;20040;-73
2021/10/03 08:56:11;;;;;;;5.38;3.85;;;18.60;99.90;;;;;;5009831;28;20049;-74
2021/10/03 08:58:36;;;;;;;5.20;3.40;;;18.50;99.90;;;;;;5009127;28;20030;-74
2021/10/03 09:01:02;;;;;;;9.07;3.35;;;18.60;99.90;;;;;;5009241;28;20581;-73
2021/10/03 09:03:28;;;;;;;6.40;3.03;;;18.60;99.90;;;;;;5009351;28;20057;-74
2021/10/03 09:05:58;;;;;;;4.60;3.10;;;18.70;99.90;;;;;;5009637;28;20049;-74
2021/10/03 09:08:27;;;;;;;7.88;3.70;;;18.70;99.90;;;;;;5008987;28;20456;-72
2021/10/03 09:11:07;;;;;;;6.57;4.07;;;18.80;99.90;;;;;;5009240;28;20029;-73
2021/10/03 09:13:32;;;;;;;4.13;3.67;;;18.90;99.90;;;;;;5008744;28;20026;-73
2021/10/03 09:16:24;;;;;;;8.23;4.07;;;18.80;99.90;;;;;;5009663;28;20017;-73
2021/10/03 09:18:56;;;;;;;3.70;2.97;;;18.70;99.90;;;;;;5009667;28;20026;-73
2021/10/03 09:21:32;;;;;;;6.10;4.07;;;18.70;99.90;;;;;;5008935;28;20034;-72
2021/10/03 09:24:05;;;;;;;10.82;4.68;;;18.80;99.90;;;;;;5009448;28;20018;-73
2021/10/03 09:26:32;;;;;;;8.50;3.75;;;18.80;99.90;;;;;;5009826;28;20025;-73
2021/10/03 09:28:58;;;;;;;4.78;3.65;;;18.80;99.90;;;;;;5008797;28;20371;-74
2021/10/03 09:31:25;;;;;;;6.18;3.85;;;18.80;99.90;;;;;;5008273;28;20030;-73
2021/10/03 09:33:56;;;;;;;8.93;3.65;;;18.80;99.90;;;;;;5012063;28;20026;-74
2021/10/03 09:36:30;;;;;;;8.02;4.10;;;18.80;99.90;;;;;;5012170;28;20021;-72
2021/10/03 09:39:07;;;;;;;8.30;3.85;;;18.90;99.90;;;;;;5013180;28;20506;-73
2021/10/03 09:41:39;;;;;;;7.43;4.30;;;18.90;99.90;;;;;;5013059;28;20018;-73
2021/10/03 09:44:14;;;;;;;13.75;4.30;;;18.90;99.90;;;;;;4996629;28;20026;-73
2021/10/03 09:46:48;;;;;;;6.65;4.93;;;18.90;99.90;;;;;;5013509;28;20057;-73
2021/10/03 09:49:24;;;;;;;13.32;5.80;;;18.80;99.90;;;;;;5013851;28;20022;-74
2021/10/03 09:51:50;;;;;;;8.93;5.00;;;18.90;99.90;;;;;;5012651;28;20026;-74
2021/10/03 09:54:17;;;;;;;7.50;4.00;;;19.00;99.90;;;;;;5012502;28;20032;-73
2021/10/03 09:56:44;;;;;;;5.60;3.53;;;19.10;99.90;;;;;;5012017;28;20053;-72
2021/10/03 09:59:10;;;;;;;4.25;3.60;;;19.20;99.90;;;;;;5012250;28;20026;-73
2021/10/03 10:01:38;;;;;;;7.70;4.28;;;19.20;99.90;;;;;;5013217;28;20475;-72
2021/10/03 10:04:08;;;;;;;11.07;4.72;;;19.20;99.90;;;;;;5012110;28;20316;-73
2021/10/03 10:06:35;;;;;;;6.57;3.60;;;19.20;99.90;;;;;;5011457;28;20035;-73
2021/10/03 10:09:13;;;;;;;3.88;3.00;;;19.30;99.90;;;;;;5011991;28;20109;-73
2021/10/03 10:12:04;;;;;;;10.07;4.25;;;19.20;99.90;;;;;;5011601;28;20153;-72
2021/10/03 10:14:36;;;;;;;10.32;3.53;;;19.20;99.90;;;;;;5013286;28;20069;-72
2021/10/03 10:17:35;;;;;;;6.07;3.17;;;19.20;99.90;;;;;;5012215;28;20025;-72
2021/10/03 10:20:20;;;;;;;5.85;3.20;;;19.20;99.90;;;;;;5003977;28;20026;-72
2021/10/03 10:23:01;;;;;;;12.50;3.35;;;19.30;99.90;;;;;;5011257;28;20022;-73
2021/10/03 10:25:43;;;;;;;4.00;2.97;;;19.30;99.90;;;;;;5011118;28;20026;-71
2021/10/03 10:28:19;;;;;;;6.70;3.10;;;19.30;99.90;;;;;;5011619;28;20045;-72
2021/10/03 10:31:11;;;;;;;4.50;3.10;;;19.40;99.90;;;;;;5011520;28;20041;-72
2021/10/03 10:33:53;;;;;;;6.57;3.38;;;19.30;99.90;;;;;;5012820;28;20058;-73
2021/10/03 10:36:32;;;;;;;4.43;3.60;;;19.30;99.90;;;;;;5011734;28;20048;-73
2021/10/03 10:39:19;;;;;;;7.97;3.03;;;19.30;99.90;;;;;;5011596;28;20018;-73
2021/10/03 10:41:48;;;;;;;5.80;3.90;;;19.40;99.90;;;;;;5010346;28;20129;-73
2021/10/03 10:44:28;;;;;;;5.97;2.75;;;19.30;99.90;;;;;;5010518;28;20026;-74
2021/10/03 10:47:08;;;;;;;6.63;3.80;;;19.50;99.90;;;;;;5012805;28;20026;-72
2021/10/03 10:49:40;;;;;;;6.82;3.75;;;19.50;99.90;;;;;;5010917;28;20022;-72
2021/10/03 10:52:18;;;;;;;8.68;4.03;;;19.60;99.90;;;;;;5010355;28;20080;-72
2021/10/03 10:55:22;;;;;;;8.20;3.30;;;19.70;99.90;;;;;;5010672;28;20026;-72
2021/10/03 10:57:48;;;;;;;11.25;3.83;;;19.70;99.90;;;;;;4990171;28;20077;-71
2021/10/03 11:00:25;;;;;;;9.13;5.50;;;19.80;99.90;;;;;;5010797;28;20115;-71
2021/10/03 11:03:04;;;;;;;10.90;4.95;;;19.90;99.90;;;;;;5011894;28;20376;-72
2021/10/03 11:05:43;;;;;;;5.85;3.92;;;20.00;99.90;;;;;;5012335;28;20022;-72
2021/10/03 11:08:17;;;;;;;7.18;3.90;;;20.00;99.90;;;;;;5012650;28;20419;-73
2021/10/03 11:11:08;;;;;;;6.18;3.33;;;20.10;99.90;;;;;;5010419;28;20026;-73
2021/10/03 11:13:46;;;;;;;6.85;2.85;;;20.10;99.90;;;;;;5010727;28;20115;-72
2021/10/03 11:16:46;;;;;;;7.13;3.25;;;20.00;99.90;;;;;;5010735;28;20030;-73
2021/10/03 11:19:23;;;;;;;6.05;3.55;;;20.10;99.90;;;;;;5010921;28;20366;-72
2021/10/03 11:21:51;;;;;;;6.20;3.10;;;20.10;99.90;;;;;;5010200;28;20033;-72
2021/10/03 11:24:30;;;;;;;6.03;3.08;;;20.10;99.90;;;;;;5012017;28;20022;-73
2021/10/03 11:27:27;;;;;;;4.40;2.83;;;20.10;99.90;;;;;;5011122;28;20059;-72
2021/10/03 11:29:56;;;;;;;5.32;3.67;;;20.20;99.90;;;;;;5009424;28;20037;-72
2021/10/03 11:32:27;;;;;;;6.90;3.42;;;20.20;99.90;;;;;;5011507;28;20057;-72
2021/10/03 11:35:02;;;;;;;5.50;3.90;;;20.30;99.90;;;;;;5009998;28;20044;-73
2021/10/03 11:37:33;;;;;;;5.88;2.78;;;20.20;99.90;;;;;;5012161;28;20026;-73
2021/10/03 11:40:06;;;;;;;8.23;3.63;;;20.30;99.90;;;;;;5010410;28;20490;-73
2021/10/03 11:42:45;;;;;;;4.13;3.47;;;20.30;99.90;;;;;;5009934;28;20018;-73
2021/10/03 11:45:13;;;;;;;7.05;3.30;;;20.30;99.90;;;;;;5008564;28;20022;-72
2021/10/03 11:47:45;;;;;;;5.35;2.90;;;20.30;99.90;;;;;;5001150;28;20062;-72
2021/10/03 11:50:42;;;;;;;4.63;3.65;;;20.20;99.90;;;;;;4999287;28;20037;-72
2021/10/03 11:53:22;;;;;;;6.75;4.05;;;20.20;99.90;;;;;;5002784;28;20021;-73
2021/10/03 11:55:50;;;;;;;5.43;3.63;;;20.10;99.90;;;;;;5003875;28;20040;-73
2021/10/03 11:58:19;;;;;;;5.65;3.67;;;20.10;99.90;;;;;;5006444;28;20073;-73
2021/10/03 12:00:53;;;;;;;4.00;3.33;;;20.00;99.90;;;;;;5008536;28;20057;-71
2021/10/03 12:03:20;;;;;;;5.28;3.42;;;19.90;99.90;;;;;;5007647;28;20120;-71
2021/10/03 12:05:46;;;;;;;5.65;2.83;;;20.00;99.90;;;;;;4998382;28;20022;-71
2021/10/03 12:08:15;;;;;;;10.95;4.07;;;20.00;99.90;;;;;;4998903;28;20038;-72
2021/10/03 12:10:46;;;;;;;4.20;3.03;;;20.10;99.90;;;;;;5001990;28;20030;-72
2021/10/03 12:13:14;;;;;;;10.55;3.85;;;20.10;99.90;;;;;;5005398;28;20383;-71
2021/10/03 12:15:42;;;;;;;4.20;3.08;;;20.10;99.90;;;;;;5000210;28;20029;-72
2021/10/03 12:18:13;;;;;;;8.82;3.42;;;20.20;99.90;;;;;;4999698;28;20068;-71
2021/10/03 12:21:00;;;;;;;5.88;3.38;;;20.30;99.90;;;;;;4999961;28;20084;-72
2021/10/03 12:23:47;;;;;;;6.95;3.45;;;20.30;99.90;;;;;;4999737;28;20539;-72
2021/10/03 12:26:25;;;;;;;9.25;3.42;;;20.30;99.90;;;;;;4998767;28;20029;-72
2021/10/03 12:28:58;;;;;;;3.63;2.05;;;20.30;99.90;;;;;;5006597;28;20292;-62
2021/10/03 12:31:39;;;;;;;2.60;2.00;;;20.40;99.90;;;;;;5011250;28;20079;-64
2021/10/03 12:34:14;;;;;;;7.57;2.42;;;20.60;99.90;;;;;;5010936;28;20033;-63
2021/10/03 12:37:02;;;;;;;4.57;2.97;;;20.70;99.90;;;;;;5008898;28;20036;-63
2021/10/03 12:39:57;;;;;;;6.38;2.70;;;20.70;99.90;;;;;;5009465;28;20368;-62
2021/10/03 12:42:25;;;;;;;3.38;2.33;;;20.70;99.90;;;;;;5010745;28;20030;-62
2021/10/03 12:44:53;;;;;;;6.18;2.88;;;20.80;99.90;;;;;;5009943;28;20030;-63
2021/10/03 12:47:20;;;;;;;5.10;2.70;;;20.90;99.90;;;;;;4993242;28;20371;-62
2021/10/03 12:49:46;;;;;;;3.33;2.45;;;20.90;99.90;;;;;;5009587;28;20018;-61
2021/10/03 12:52:13;;;;;;;7.22;2.60;;;20.90;99.90;;;;;;5009628;28;20053;-62
2021/10/03 12:54:40;;;;;;;9.27;2.90;;;21.00;99.90;;;;;;5008127;28;20057;-62